SKW5771 KDEN-KASE
Flight info
| Callsign | SKW5771 |
|---|---|
| Flight time | 0h 30m |
| Altitude | 22000 |
| Route | CONNR8 CONNR MMARY MMARY1 |
| Aircraft | E75L/M-SDE3GILORVW/S |
Departure
| Time | 2026-04-30 22:21 |
|---|---|
| Airport | Denver International Airport (KDEN) |
Arrival
| Time | 2026-04-30 22:51 |
|---|---|
| Airport | Aspen-Pitkin County Airport (Sardy Field) (KASE) |
| Time | Latitude | Longitude | Altitude | Speed | Heading |
|---|---|---|---|---|---|
| 2026-04-30 21:54 | 39.85758 | -104.66657 | 5363 ft | 0 kts | 2° |
| 2026-04-30 22:12 | 39.85747 | -104.66658 | 5362 ft | 4 kts | 0° |
| 2026-04-30 22:13 | 39.85719 | -104.66658 | 5364 ft | 4 kts | 2° |
| 2026-04-30 22:13 | 39.85692 | -104.66661 | 5362 ft | 4 kts | 9° |
| 2026-04-30 22:13 | 39.85667 | -104.66672 | 5363 ft | 4 kts | 39° |
| 2026-04-30 22:13 | 39.85660 | -104.66690 | 5364 ft | 1 kts | 91° |
| 2026-04-30 22:14 | 39.85660 | -104.66694 | 5364 ft | 0 kts | 91° |
| 2026-04-30 22:17 | 39.85678 | -104.66355 | 5364 ft | 20 kts | 91° |
| 2026-04-30 22:17 | 39.85748 | -104.66232 | 5363 ft | 20 kts | 3° |
| 2026-04-30 22:17 | 39.86022 | -104.66229 | 5364 ft | 25 kts | 359° |
| 2026-04-30 22:18 | 39.86201 | -104.66228 | 5364 ft | 25 kts | 2° |
| 2026-04-30 22:18 | 39.86535 | -104.66221 | 5364 ft | 23 kts | 360° |
| 2026-04-30 22:19 | 39.86865 | -104.66216 | 5363 ft | 23 kts | 2° |
| 2026-04-30 22:19 | 39.87024 | -104.66216 | 5363 ft | 23 kts | 1° |
| 2026-04-30 22:19 | 39.87344 | -104.66212 | 5364 ft | 23 kts | 0° |
| 2026-04-30 22:20 | 39.87502 | -104.66210 | 5364 ft | 23 kts | 360° |
| 2026-04-30 22:20 | 39.87728 | -104.66198 | 5364 ft | 9 kts | 30° |
| 2026-04-30 22:20 | 39.87761 | -104.66157 | 5364 ft | 4 kts | 72° |
| 2026-04-30 22:21 | 39.87760 | -104.66000 | 5363 ft | 49 kts | 91° |
| 2026-04-30 22:21 | 39.87754 | -104.65252 | 5363 ft | 116 kts | 91° |
| 2026-04-30 22:21 | 39.87741 | -104.63952 | 5588 ft | 153 kts | 91° |
| 2026-04-30 22:21 | 39.87728 | -104.62515 | 6204 ft | 172 kts | 89° |
| 2026-04-30 22:22 | 39.87736 | -104.60905 | 6764 ft | 176 kts | 91° |
| 2026-04-30 22:22 | 39.87464 | -104.59267 | 6914 ft | 201 kts | 112° |
| 2026-04-30 22:22 | 39.86791 | -104.57581 | 7174 ft | 216 kts | 117° |
| 2026-04-30 22:22 | 39.86011 | -104.55882 | 7616 ft | 221 kts | 125° |
| 2026-04-30 22:23 | 39.84791 | -104.54753 | 8149 ft | 230 kts | 161° |
| 2026-04-30 22:23 | 39.83113 | -104.54712 | 8418 ft | 257 kts | 195° |
| 2026-04-30 22:23 | 39.81547 | -104.55951 | 8754 ft | 276 kts | 227° |
| 2026-04-30 22:23 | 39.80603 | -104.58234 | 9181 ft | 289 kts | 258° |
| 2026-04-30 22:24 | 39.80650 | -104.60835 | 9772 ft | 290 kts | 288° |
| 2026-04-30 22:24 | 39.81382 | -104.63325 | 10269 ft | 297 kts | 295° |
| 2026-04-30 22:24 | 39.82229 | -104.65814 | 10595 ft | 310 kts | 295° |
| 2026-04-30 22:24 | 39.83013 | -104.68429 | 11138 ft | 314 kts | 285° |
| 2026-04-30 22:25 | 39.83393 | -104.71249 | 11808 ft | 316 kts | 277° |
| 2026-04-30 22:25 | 39.83530 | -104.74025 | 12486 ft | 317 kts | 272° |
| 2026-04-30 22:25 | 39.83509 | -104.76963 | 13189 ft | 319 kts | 269° |
| 2026-04-30 22:25 | 39.83386 | -104.79855 | 13908 ft | 321 kts | 267° |
| 2026-04-30 22:26 | 39.82994 | -104.85711 | 15217 ft | 325 kts | 262° |
| 2026-04-30 22:26 | 39.82610 | -104.88610 | 15888 ft | 327 kts | 261° |
| 2026-04-30 22:26 | 39.82196 | -104.91527 | 16569 ft | 329 kts | 260° |
| 2026-04-30 22:27 | 39.81766 | -104.94467 | 17300 ft | 331 kts | 260° |
| 2026-04-30 22:27 | 39.81329 | -104.97455 | 18037 ft | 332 kts | 260° |
| 2026-04-30 22:27 | 39.80457 | -105.03402 | 19418 ft | 336 kts | 260° |
| 2026-04-30 22:28 | 39.79581 | -105.09354 | 20761 ft | 341 kts | 259° |
| 2026-04-30 22:28 | 39.79273 | -105.11435 | 21219 ft | 342 kts | 259° |
| 2026-04-30 22:29 | 39.77956 | -105.20336 | 21944 ft | 335 kts | 259° |
| 2026-04-30 22:29 | 39.77517 | -105.23457 | 22004 ft | 347 kts | 260° |
| 2026-04-30 22:30 | 39.75195 | -105.35646 | 21970 ft | 348 kts | 256° |
| 2026-04-30 22:31 | 39.73301 | -105.44892 | 21938 ft | 348 kts | 255° |
| 2026-04-30 22:32 | 39.71417 | -105.54023 | 21924 ft | 349 kts | 255° |
| 2026-04-30 22:32 | 39.70167 | -105.60162 | 21909 ft | 349 kts | 255° |
| 2026-04-30 22:33 | 39.68491 | -105.69377 | 21895 ft | 350 kts | 259° |
| 2026-04-30 22:33 | 39.67628 | -105.75656 | 21868 ft | 351 kts | 260° |
| 2026-04-30 22:34 | 39.66321 | -105.85244 | 21844 ft | 352 kts | 260° |
| 2026-04-30 22:35 | 39.65464 | -105.91488 | 21840 ft | 353 kts | 259° |
| 2026-04-30 22:36 | 39.63722 | -106.04101 | 21701 ft | 351 kts | 259° |
| 2026-04-30 22:36 | 39.63236 | -106.07203 | 20950 ft | 350 kts | 253° |
| 2026-04-30 22:37 | 39.61434 | -106.16508 | 18626 ft | 352 kts | 263° |
| 2026-04-30 22:37 | 39.61136 | -106.19645 | 17960 ft | 349 kts | 263° |
| 2026-04-30 22:37 | 39.60437 | -106.24739 | 16859 ft | 343 kts | 259° |
| 2026-04-30 22:38 | 39.59494 | -106.30658 | 16032 ft | 335 kts | 259° |
| 2026-04-30 22:38 | 39.58498 | -106.36812 | 15945 ft | 339 kts | 259° |
| 2026-04-30 22:39 | 39.58007 | -106.39850 | 15920 ft | 338 kts | 259° |
| 2026-04-30 22:39 | 39.56565 | -106.48737 | 15929 ft | 338 kts | 259° |
| 2026-04-30 22:40 | 39.55093 | -106.57759 | 15935 ft | 337 kts | 258° |
| 2026-04-30 22:41 | 39.53642 | -106.66612 | 14091 ft | 332 kts | 259° |
| 2026-04-30 22:41 | 39.52688 | -106.72419 | 12852 ft | 327 kts | 259° |
| 2026-04-30 22:42 | 39.50793 | -106.83867 | 12000 ft | 324 kts | 259° |
| 2026-04-30 22:43 | 39.49827 | -106.89698 | 12405 ft | 325 kts | 259° |
| 2026-04-30 22:43 | 39.48892 | -106.95305 | 13172 ft | 313 kts | 259° |
| 2026-04-30 22:44 | 39.48143 | -106.99785 | 12887 ft | 291 kts | 259° |
| 2026-04-30 22:45 | 39.42803 | -107.06331 | 11211 ft | 297 kts | 168° |
| 2026-04-30 22:45 | 39.39789 | -107.02804 | 11425 ft | 301 kts | 109° |
| 2026-04-30 22:46 | 39.38175 | -106.97821 | 11875 ft | 294 kts | 133° |
| 2026-04-30 22:47 | 39.31602 | -106.94321 | 11726 ft | 256 kts | 149° |
| 2026-04-30 22:47 | 39.29222 | -106.91463 | 11459 ft | 222 kts | 133° |
| 2026-04-30 22:48 | 39.26722 | -106.89685 | 10703 ft | 196 kts | 178° |
| 2026-04-30 22:49 | 39.24758 | -106.91969 | 10179 ft | 143 kts | 298° |
| 2026-04-30 22:49 | 39.27384 | -106.91657 | 9274 ft | 155 kts | 57° |
| 2026-04-30 22:50 | 39.24815 | -106.88008 | 8408 ft | 170 kts | 168° |
| 2026-04-30 22:51 | 39.23040 | -106.87225 | 7832 ft | 146 kts | 162° |
| 2026-04-30 22:51 | 39.21725 | -106.86603 | 7820 ft | 26 kts | 153° |
| 2026-04-30 22:52 | 39.21691 | -106.86532 | 7818 ft | 6 kts | 85° |
| 2026-04-30 22:52 | 39.21724 | -106.86485 | 7819 ft | 5 kts | 5° |
| 2026-04-30 22:53 | 39.21799 | -106.86516 | 7817 ft | 0 kts | 340° |
| 2026-04-30 22:53 | 39.21808 | -106.86520 | 7819 ft | 4 kts | 340° |
| 2026-04-30 22:53 | 39.21835 | -106.86533 | 7819 ft | 4 kts | 338° |
| 2026-04-30 22:54 | 39.21892 | -106.86563 | 7819 ft | 0 kts | 339° |
| 2026-04-30 22:55 | 39.21896 | -106.86565 | 7819 ft | 1 kts | 339° |
| 2026-04-30 22:55 | 39.21922 | -106.86576 | 7819 ft | 1 kts | 350° |
| 2026-04-30 22:56 | 39.21939 | -106.86565 | 7819 ft | 2 kts | 52° |
| 2026-04-30 22:56 | 39.21950 | -106.86507 | 7819 ft | 0 kts | 80° |